createdAt,value
2019-03-23T00:04:57.942Z,71.16
2019-03-23T00:10:11.498Z,70.94
2019-03-23T00:15:26.563Z,70.57
2019-03-23T00:20:30.399Z,70.39
2019-03-23T00:25:37.155Z,70.42
2019-03-23T00:30:40.796Z,70.30
2019-03-23T00:35:47.216Z,70.27
2019-03-23T00:40:50.893Z,70.50
2019-03-23T00:45:54.428Z,70.40
2019-03-23T00:50:58.100Z,70.56
2019-03-23T00:56:16.593Z,70.71
2019-03-23T01:01:20.570Z,70.81
2019-03-23T01:06:24.830Z,70.83
2019-03-23T01:11:28.821Z,70.85
2019-03-23T01:16:41.327Z,70.72
2019-03-23T01:21:44.315Z,69.92
2019-03-23T01:26:48.025Z,69.29
2019-03-23T01:31:52.131Z,69.58
2019-03-23T01:37:02.669Z,69.99
2019-03-23T01:42:02.358Z,70.16
2019-03-23T01:47:06.735Z,70.71
2019-03-23T01:52:10.384Z,71.34
2019-03-23T01:57:13.967Z,72.07
2019-03-23T02:02:17.604Z,72.24
2019-03-23T02:07:21.151Z,72.45
2019-03-23T02:12:24.682Z,72.33
2019-03-23T02:17:28.334Z,72.21
2019-03-23T02:22:31.962Z,71.95
2019-03-23T02:27:35.548Z,71.58
2019-03-23T02:32:39.137Z,71.93
2019-03-23T02:37:42.842Z,72.82
2019-03-23T02:42:46.498Z,73.91
2019-03-23T02:47:50.071Z,75.42
2019-03-23T02:52:53.721Z,76.77
2019-03-23T02:57:57.507Z,78.11
2019-03-23T03:03:01.037Z,78.85
2019-03-23T03:08:04.542Z,79.37
2019-03-23T03:13:08.200Z,80.26
2019-03-23T03:18:11.837Z,80.34
2019-03-23T03:23:15.386Z,80.94
2019-03-23T03:28:19.073Z,80.71
2019-03-23T03:33:22.684Z,80.23
2019-03-23T03:38:26.357Z,79.89
2019-03-23T03:43:29.927Z,79.97
2019-03-23T03:48:33.458Z,79.39
2019-03-23T03:53:36.999Z,79.25
2019-03-23T03:58:40.542Z,79.07
2019-03-23T04:03:44.137Z,79.46
2019-03-23T04:08:47.819Z,80.50
2019-03-23T04:13:51.429Z,80.98
2019-03-23T04:18:55.031Z,81.93
2019-03-23T04:23:58.551Z,82.03
2019-03-23T04:29:02.266Z,81.01
2019-03-23T04:34:05.789Z,80.23
2019-03-23T04:39:09.326Z,79.82
2019-03-23T04:44:12.895Z,79.20
2019-03-23T04:49:16.405Z,78.48
2019-03-23T04:54:19.959Z,78.09
2019-03-23T04:59:23.614Z,77.49
2019-03-23T05:04:27.195Z,77.46
2019-03-23T05:09:30.737Z,77.30
2019-03-23T05:14:34.426Z,76.72
2019-03-23T05:19:37.986Z,76.83
2019-03-23T05:24:41.624Z,76.67
2019-03-23T05:29:45.203Z,76.54
2019-03-23T05:34:48.838Z,76.27
2019-03-23T05:39:52.417Z,76.78
2019-03-23T05:44:55.931Z,76.56
2019-03-23T05:49:59.530Z,76.74
2019-03-23T05:55:03.102Z,76.93
2019-03-23T06:00:07.371Z,76.91
2019-03-23T06:05:10.912Z,76.52
2019-03-23T06:10:14.438Z,76.23
2019-03-23T06:15:17.991Z,75.85
2019-03-23T06:20:21.507Z,75.91
2019-03-23T06:25:25.091Z,75.80
2019-03-23T06:30:28.623Z,75.49
2019-03-23T06:35:32.183Z,75.51
2019-03-23T06:40:35.831Z,75.72
2019-03-23T06:45:39.684Z,75.47
2019-03-23T06:50:43.195Z,75.68
2019-03-23T06:55:46.760Z,75.78
2019-03-23T07:00:50.613Z,75.35
2019-03-23T07:05:54.138Z,74.88
2019-03-23T07:10:59.740Z,74.92
2019-03-23T07:16:04.230Z,74.96
2019-03-23T07:21:08.717Z,74.65
2019-03-23T07:26:14.210Z,74.71
2019-03-23T07:31:18.381Z,74.92
2019-03-23T07:36:21.949Z,75.17
2019-03-23T07:41:25.480Z,75.81
2019-03-23T07:46:29.015Z,75.37
2019-03-23T07:51:32.685Z,74.92
2019-03-23T07:56:36.190Z,74.86
2019-03-23T08:01:39.833Z,74.87
2019-03-23T08:06:43.366Z,74.99
2019-03-23T08:11:46.885Z,75.04
2019-03-23T08:16:50.410Z,75.30
2019-03-23T08:21:54.049Z,75.01
2019-03-23T08:26:57.564Z,75.17
2019-03-23T08:32:01.106Z,74.98
2019-03-23T08:37:04.904Z,74.72
2019-03-23T08:42:08.480Z,74.32
2019-03-23T08:47:12.099Z,73.80
2019-03-23T08:52:15.657Z,72.93
2019-03-23T08:57:19.293Z,71.61
2019-03-23T09:02:22.859Z,70.86
2019-03-23T09:07:26.442Z,69.66
2019-03-23T09:12:30.008Z,68.87
2019-03-23T09:17:33.575Z,68.22
2019-03-23T09:22:37.219Z,67.32
2019-03-23T09:27:40.723Z,67.25
2019-03-23T09:32:44.362Z,67.22
2019-03-23T09:37:47.880Z,67.42
2019-03-23T09:42:51.475Z,67.79
2019-03-23T09:47:54.990Z,67.56
2019-03-23T09:52:58.536Z,67.74
2019-03-23T09:58:02.179Z,67.97
2019-03-23T10:03:05.765Z,67.56
2019-03-23T10:08:09.333Z,67.79
2019-03-23T10:13:12.876Z,66.95
2019-03-23T10:18:16.549Z,66.42
2019-03-23T10:23:20.166Z,66.40
2019-03-23T10:28:23.760Z,66.38
2019-03-23T10:33:27.273Z,65.52
2019-03-23T10:38:30.792Z,65.08
2019-03-23T10:43:34.334Z,64.68
2019-03-23T10:48:38.095Z,64.11
2019-03-23T10:53:41.675Z,63.42
2019-03-23T10:58:45.273Z,62.29
2019-03-23T11:03:48.893Z,63.32
2019-03-23T11:08:52.568Z,61.75
2019-03-23T11:13:56.206Z,60.63
2019-03-23T11:18:59.764Z,61.18
2019-03-23T11:24:03.366Z,60.54
2019-03-23T11:29:08.462Z,59.52
2019-03-23T11:34:17.820Z,59.33
2019-03-23T11:39:17.849Z,59.00
2019-03-23T11:44:21.443Z,58.20
2019-03-23T11:49:25.053Z,58.48
2019-03-23T11:54:28.624Z,58.77
2019-03-23T11:59:32.220Z,58.58
2019-03-23T12:04:35.778Z,59.25
2019-03-23T12:09:39.342Z,58.88
2019-03-23T12:14:42.898Z,58.39
2019-03-23T12:19:46.431Z,57.95
2019-03-23T12:24:49.969Z,57.10
2019-03-23T12:29:53.580Z,56.54
2019-03-23T12:34:57.147Z,57.15
2019-03-23T12:40:00.713Z,56.89
2019-03-23T12:45:05.187Z,56.45
2019-03-23T12:50:09.221Z,56.75
2019-03-23T12:55:12.782Z,56.53
2019-03-23T13:00:17.790Z,56.11
2019-03-23T13:05:21.471Z,56.48
2019-03-23T13:10:25.027Z,55.88
2019-03-23T13:15:28.583Z,55.79
2019-03-23T13:20:32.249Z,56.26
2019-03-23T13:25:35.886Z,55.28
2019-03-23T13:30:39.432Z,55.28
2019-03-23T13:35:42.995Z,54.79
2019-03-23T13:40:46.528Z,54.97
2019-03-23T13:45:50.082Z,55.37
2019-03-23T13:50:53.824Z,55.94
2019-03-23T13:55:57.450Z,56.65
2019-03-23T14:01:01.020Z,57.18
2019-03-23T14:06:04.818Z,57.57
2019-03-23T14:11:08.337Z,58.72
2019-03-23T14:16:11.861Z,59.57
2019-03-23T14:21:15.392Z,60.18
2019-03-23T14:26:19.077Z,61.00
2019-03-23T14:31:22.680Z,61.62
2019-03-23T14:36:27.944Z,61.88
2019-03-23T14:41:32.693Z,62.07
2019-03-23T14:46:36.315Z,62.36
2019-03-23T14:51:39.867Z,62.29
2019-03-23T14:56:43.438Z,62.32
2019-03-23T15:01:50.420Z,61.86
2019-03-23T15:06:56.408Z,62.53
2019-03-23T15:12:01.187Z,63.14
2019-03-23T15:17:04.810Z,63.40
2019-03-23T15:22:08.631Z,63.78
2019-03-23T15:27:14.061Z,64.74
2019-03-23T15:32:17.717Z,65.38
2019-03-23T15:37:21.285Z,67.74
2019-03-23T15:42:25.226Z,68.44
2019-03-23T15:47:29.054Z,67.97
2019-03-23T15:52:33.034Z,68.21
2019-03-23T15:57:36.969Z,68.81
2019-03-23T16:02:41.016Z,69.37
2019-03-23T16:07:47.325Z,69.67
